Time;durP1;ratioP1;P1;durP2;ratioP2;P2;SDS_P1;SDS_P2;PMS_P1;PMS_P2;Temp;Humidity;BMP_temperature;BMP_pressure;BME280_temperature;BME280_humidity;BME280_pressure;Samples;Min_cycle;Max_cycle;Signal;HPM_P1;HPM_P2
2022/01/23 00:00:42;;;;;;;16.60;7.18;;;-1.00;99.90;;;;;;5207716;28;20457;-71
2022/01/23 00:03:22;;;;;;;7.90;3.40;;;-0.80;99.90;;;;;;5207280;28;20049;-72
2022/01/23 00:05:53;;;;;;;8.95;4.53;;;-0.90;99.90;;;;;;5207849;28;20481;-72
2022/01/23 00:08:24;;;;;;;12.95;6.10;;;-0.80;99.90;;;;;;5207606;28;20022;-72
2022/01/23 00:10:56;;;;;;;13.80;7.82;;;-0.50;99.90;;;;;;5207679;28;20029;-72
2022/01/23 00:17:12;;;;;;;16.13;7.50;;;-1.00;99.90;;;;;;5189746;28;20079;-72
2022/01/23 00:19:10;;;;;;;51.75;27.00;;;-0.90;99.90;;;;;;5207754;28;20151;-72
2022/01/23 00:21:41;;;;;;;19.58;9.15;;;-0.80;99.90;;;;;;5207271;28;20112;-72
2022/01/23 00:32:22;;;;;;;10.18;5.78;;;-0.70;99.90;;;;;;5207160;28;20095;-72
2022/01/23 00:34:52;;;;;;;7.55;3.83;;;-0.70;99.90;;;;;;5207050;28;20030;-72
2022/01/23 00:37:24;;;;;;;10.25;4.22;;;-1.10;99.90;;;;;;5207164;28;20022;-72
2022/01/23 00:39:55;;;;;;;10.93;5.05;;;-1.20;99.90;;;;;;5206902;28;20052;-73
2022/01/23 00:42:27;;;;;;;11.45;5.82;;;-1.10;99.90;;;;;;5206951;28;20018;-72
2022/01/23 00:45:16;;;;;;;9.43;5.35;;;-1.00;99.90;;;;;;5206913;28;20484;-72
2022/01/23 00:47:50;;;;;;;11.18;5.25;;;-0.90;99.90;;;;;;5206975;28;20021;-72
2022/01/23 00:50:21;;;;;;;13.00;6.60;;;-1.10;99.90;;;;;;5206873;28;20133;-72
2022/01/23 00:52:52;;;;;;;9.60;5.38;;;-1.00;99.90;;;;;;5206762;28;20025;-72
2022/01/23 00:55:23;;;;;;;12.93;5.93;;;-1.40;99.90;;;;;;5206853;28;20030;-72
2022/01/23 00:57:53;;;;;;;12.95;6.82;;;-1.20;99.90;;;;;;5206750;28;20428;-72
2022/01/23 01:00:24;;;;;;;10.60;5.95;;;-1.20;99.90;;;;;;5205431;28;20033;-72
2022/01/23 01:02:55;;;;;;;13.77;6.93;;;-1.10;99.90;;;;;;5206273;28;20103;-71
2022/01/23 01:05:26;;;;;;;11.60;6.30;;;-1.30;99.90;;;;;;5206773;28;20095;-72
2022/01/23 01:07:59;;;;;;;17.27;8.18;;;-1.40;99.90;;;;;;5206731;28;20079;-72
2022/01/23 01:10:44;;;;;;;16.35;7.53;;;-1.20;99.90;;;;;;5206702;28;20026;-72
2022/01/23 01:13:15;;;;;;;12.63;6.75;;;-1.20;99.90;;;;;;5206659;28;20026;-71
2022/01/23 01:16:34;;;;;;;12.98;7.05;;;-1.10;99.90;;;;;;5206640;28;20480;-72
2022/01/23 01:30:36;;;;;;;13.88;7.60;;;-1.20;99.90;;;;;;5206495;28;20122;-72
2022/01/23 01:35:48;;;;;;;13.65;7.63;;;-1.40;99.90;;;;;;5207308;28;20033;-71
2022/01/23 01:38:19;;;;;;;17.70;7.78;;;-1.50;99.90;;;;;;5210775;28;20138;-71
2022/01/23 01:40:51;;;;;;;15.57;7.07;;;-1.30;99.90;;;;;;5210492;28;20032;-71
2022/01/23 01:43:22;;;;;;;12.27;7.10;;;-1.20;99.90;;;;;;5210426;28;20107;-71
2022/01/23 01:45:54;;;;;;;16.35;7.75;;;-1.10;99.90;;;;;;5210444;28;20026;-71
2022/01/23 01:48:25;;;;;;;15.27;7.30;;;-1.60;99.90;;;;;;5210401;28;20029;-71
2022/01/23 01:50:58;;;;;;;10.20;6.50;;;-1.60;99.90;;;;;;5210416;28;20021;-72
2022/01/23 01:53:29;;;;;;;20.75;12.02;;;-1.60;99.90;;;;;;5210325;28;20021;-72
2022/01/23 01:56:00;;;;;;;12.93;6.32;;;-1.80;99.90;;;;;;5210159;28;20025;-72
2022/01/23 02:02:46;;;;;;;12.95;8.10;;;-1.80;99.90;;;;;;5210227;28;20369;-72
2022/01/23 02:09:41;;;;;;;15.27;8.93;;;-1.90;99.90;;;;;;5210369;28;20091;-72
2022/01/23 02:13:00;;;;;;;17.30;9.80;;;-1.60;99.90;;;;;;5210109;28;20024;-72
2022/01/23 02:51:03;;;;;;;12.68;7.45;;;-1.50;99.90;;;;;;5209323;28;20039;-72
2022/01/23 02:54:02;;;;;;;13.13;6.93;;;-1.60;99.90;;;;;;5209152;28;20017;-72
2022/01/23 02:56:34;;;;;;;13.77;7.18;;;-1.70;99.90;;;;;;5209116;28;20393;-72
2022/01/23 02:59:19;;;;;;;13.32;7.78;;;-1.70;99.90;;;;;;5209193;28;20017;-72
2022/01/23 03:02:55;;;;;;;13.77;7.07;;;-1.70;99.90;;;;;;5208868;28;20045;-72
2022/01/23 03:04:53;;;;;;;11.30;6.95;;;-1.60;99.90;;;;;;5195560;28;20136;-72
2022/01/23 03:10:20;;;;;;;13.88;6.65;;;-1.60;99.90;;;;;;5208982;28;20485;-72
2022/01/23 03:26:52;;;;;;;8.23;4.80;;;-1.40;99.90;;;;;;5208935;28;20386;-72
2022/01/23 03:29:27;;;;;;;7.00;4.70;;;-1.20;99.90;;;;;;5208536;28;20053;-72
2022/01/23 03:32:11;;;;;;;7.72;4.65;;;-1.20;99.90;;;;;;5208399;28;20426;-72
2022/01/23 03:34:42;;;;;;;10.10;4.90;;;-1.30;99.90;;;;;;5208450;28;20120;-72
2022/01/23 03:37:13;;;;;;;9.82;5.43;;;-1.20;99.90;;;;;;5208634;28;20112;-72
2022/01/23 03:39:44;;;;;;;7.90;5.43;;;-1.30;99.90;;;;;;5208222;28;20025;-72
2022/01/23 03:42:15;;;;;;;8.65;5.25;;;-1.20;99.90;;;;;;5208183;28;20071;-72
2022/01/23 03:45:04;;;;;;;11.82;6.45;;;-1.20;99.90;;;;;;5208224;28;20464;-72
2022/01/23 03:47:39;;;;;;;13.55;7.03;;;-1.30;99.90;;;;;;5208315;28;20109;-72
2022/01/23 03:50:11;;;;;;;14.15;7.43;;;-1.40;99.90;;;;;;5208174;28;20447;-72
2022/01/23 03:52:42;;;;;;;11.52;6.70;;;-1.20;99.90;;;;;;5208060;28;20168;-72
2022/01/23 03:55:13;;;;;;;12.35;6.20;;;-1.30;99.90;;;;;;5206566;28;20455;-72
2022/01/23 03:57:44;;;;;;;12.77;6.90;;;-1.50;99.90;;;;;;5207966;28;20060;-72
2022/01/23 04:00:17;;;;;;;11.82;6.38;;;-1.60;99.90;;;;;;5207936;28;20056;-72
2022/01/23 04:02:47;;;;;;;12.65;8.07;;;-1.60;99.90;;;;;;5207521;28;20045;-72
2022/01/23 04:05:18;;;;;;;12.65;7.10;;;-1.60;99.90;;;;;;5207689;28;20502;-72
2022/01/23 04:07:50;;;;;;;15.00;7.93;;;-1.40;99.90;;;;;;5207818;28;20017;-72
2022/01/23 04:10:23;;;;;;;13.68;6.93;;;-1.50;99.90;;;;;;5207657;28;20025;-72
2022/01/23 04:12:59;;;;;;;11.48;6.38;;;-1.50;99.90;;;;;;5207594;28;20036;-72
2022/01/23 04:19:07;;;;;;;9.10;4.97;;;-1.40;99.90;;;;;;5197088;28;20057;-72
2022/01/23 04:33:31;;;;;;;11.02;6.35;;;-1.00;99.90;;;;;;5144246;28;20512;-71
2022/01/23 05:00:47;;;;;;;17.35;7.63;;;-1.20;99.90;;;;;;5157131;28;20041;-71
2022/01/23 05:06:10;;;;;;;17.73;8.70;;;-1.10;99.90;;;;;;5206924;28;20060;-71
2022/01/23 05:08:41;;;;;;;15.45;7.53;;;-1.20;99.90;;;;;;5206740;28;20472;-71
2022/01/23 05:11:12;;;;;;;12.30;6.80;;;-1.10;99.90;;;;;;5206263;28;20032;-72
2022/01/23 05:13:44;;;;;;;16.30;7.55;;;-1.20;99.90;;;;;;5206639;28;20048;-72
2022/01/23 05:16:15;;;;;;;20.40;8.18;;;-1.20;99.90;;;;;;5206682;28;20542;-72
2022/01/23 05:18:46;;;;;;;13.13;7.72;;;-1.30;99.90;;;;;;5206718;28;20052;-72
2022/01/23 05:23:50;;;;;;;17.08;8.43;;;-1.30;99.90;;;;;;5206352;28;20184;-73
2022/01/23 05:26:21;;;;;;;19.30;9.65;;;-1.40;99.90;;;;;;5206574;28;20104;-73
2022/01/23 05:28:52;;;;;;;17.20;9.50;;;-1.20;99.90;;;;;;5206566;28;20388;-72
2022/01/23 05:31:23;;;;;;;19.85;7.97;;;-1.40;99.90;;;;;;5206425;28;20021;-72
2022/01/23 05:33:54;;;;;;;17.65;9.07;;;-1.40;99.90;;;;;;5206436;28;20469;-71
2022/01/23 05:36:25;;;;;;;18.70;8.55;;;-1.20;99.90;;;;;;5206473;28;20037;-72
2022/01/23 05:38:56;;;;;;;17.17;8.93;;;-1.30;99.90;;;;;;5206389;28;20022;-71
2022/01/23 05:41:27;;;;;;;16.92;9.70;;;-1.20;99.90;;;;;;5206316;28;20495;-72
2022/01/23 05:43:58;;;;;;;20.60;10.43;;;-1.40;99.90;;;;;;5206104;28;20025;-72
2022/01/23 05:46:29;;;;;;;24.38;8.15;;;-1.30;99.90;;;;;;5206266;28;20048;-71
2022/01/23 05:49:00;;;;;;;23.55;11.25;;;-1.10;99.90;;;;;;5206377;28;20105;-71
2022/01/23 05:51:30;;;;;;;16.45;8.75;;;-1.20;99.90;;;;;;5206309;28;20026;-71
2022/01/23 05:54:01;;;;;;;17.95;7.93;;;-1.10;99.90;;;;;;5206216;28;20021;-71
2022/01/23 05:56:32;;;;;;;21.73;8.95;;;-1.00;99.90;;;;;;5206252;28;20029;-72
2022/01/23 05:59:03;;;;;;;23.13;10.23;;;-1.10;99.90;;;;;;5206221;28;20026;-72
2022/01/23 06:01:34;;;;;;;14.20;7.47;;;-1.20;99.90;;;;;;5205779;28;20361;-72
2022/01/23 06:04:05;;;;;;;20.38;9.05;;;-1.10;99.90;;;;;;5206227;28;20043;-72
2022/01/23 06:06:36;;;;;;;16.98;9.35;;;-1.30;99.90;;;;;;5206147;28;20026;-72
2022/01/23 06:09:07;;;;;;;18.67;9.32;;;-1.40;99.90;;;;;;5188609;28;20025;-72
2022/01/23 06:11:37;;;;;;;25.38;8.80;;;-1.20;99.90;;;;;;5206175;28;20057;-72
2022/01/23 06:14:09;;;;;;;16.42;8.10;;;-1.10;99.90;;;;;;5206041;28;20028;-72
2022/01/23 06:16:40;;;;;;;17.95;9.25;;;-1.20;99.90;;;;;;5206008;28;20446;-72
2022/01/23 06:19:10;;;;;;;18.08;8.85;;;-1.20;99.90;;;;;;5206058;28;20053;-72
2022/01/23 06:21:41;;;;;;;14.80;7.80;;;-1.10;99.90;;;;;;5205934;28;20025;-72
2022/01/23 06:24:26;;;;;;;17.30;8.88;;;-1.00;99.90;;;;;;5208758;28;20047;-72
2022/01/23 06:27:00;;;;;;;16.23;8.60;;;-1.00;99.90;;;;;;5191978;28;20469;-72
2022/01/23 06:29:31;;;;;;;18.55;8.77;;;-1.00;99.90;;;;;;5209699;28;20088;-72
2022/01/23 06:32:04;;;;;;;17.92;8.52;;;-0.90;99.90;;;;;;5209552;28;20029;-72
2022/01/23 06:34:35;;;;;;;17.95;8.07;;;-0.90;99.90;;;;;;5209580;28;20029;-72
2022/01/23 06:37:06;;;;;;;26.73;11.07;;;-0.70;99.90;;;;;;5209537;28;20020;-72
2022/01/23 06:39:37;;;;;;;16.98;8.77;;;-0.70;99.90;;;;;;5209573;28;20036;-72
2022/01/23 06:42:09;;;;;;;17.25;8.30;;;-0.90;99.90;;;;;;5209364;28;20025;-72
2022/01/23 06:44:40;;;;;;;14.80;7.70;;;-0.70;99.90;;;;;;5209269;28;20133;-72
2022/01/23 06:47:11;;;;;;;17.40;8.43;;;-0.90;99.90;;;;;;5209389;28;20100;-72
2022/01/23 06:49:42;;;;;;;18.80;8.60;;;-0.70;99.90;;;;;;5209308;28;20033;-71
2022/01/23 06:52:13;;;;;;;15.63;8.02;;;-0.80;99.90;;;;;;5209175;28;20041;-71
2022/01/23 06:54:44;;;;;;;18.77;9.10;;;-0.80;99.90;;;;;;5209143;28;20021;-71
2022/01/23 06:57:15;;;;;;;14.25;8.35;;;-0.80;99.90;;;;;;5209148;28;20026;-71
2022/01/23 06:59:45;;;;;;;14.77;8.30;;;-0.70;99.90;;;;;;5209164;28;20025;-71
2022/01/23 07:02:16;;;;;;;16.85;8.52;;;-0.70;99.90;;;;;;5208580;28;20124;-72
2022/01/23 07:04:47;;;;;;;25.58;10.77;;;-0.80;99.90;;;;;;5208984;28;20037;-71
2022/01/23 07:07:18;;;;;;;18.10;8.45;;;-0.90;99.90;;;;;;5208864;28;20480;-70
2022/01/23 07:09:49;;;;;;;14.75;7.82;;;-0.90;99.90;;;;;;5209464;28;20025;-71
2022/01/23 07:12:19;;;;;;;15.00;8.88;;;-0.90;99.90;;;;;;5208804;28;20029;-71
2022/01/23 07:14:50;;;;;;;15.52;8.48;;;-0.60;99.90;;;;;;5208888;28;20049;-71
2022/01/23 07:17:21;;;;;;;14.20;6.85;;;-0.60;99.90;;;;;;5208757;28;20025;-71
2022/01/23 07:19:52;;;;;;;20.50;11.20;;;-0.50;99.90;;;;;;5208671;28;20024;-71
2022/01/23 07:22:23;;;;;;;15.85;7.07;;;-0.60;99.90;;;;;;5208607;28;20034;-71
2022/01/23 07:24:55;;;;;;;15.65;8.15;;;-0.30;99.90;;;;;;5208483;28;20068;-71
2022/01/23 07:27:28;;;;;;;16.33;7.63;;;-0.40;99.90;;;;;;5208571;28;20059;-71
2022/01/23 07:29:59;;;;;;;17.67;7.97;;;-0.50;99.90;;;;;;5208518;28;20386;-71
2022/01/23 07:32:30;;;;;;;15.90;6.93;;;-0.50;99.90;;;;;;5190463;28;20017;-71
2022/01/23 07:35:01;;;;;;;22.70;7.63;;;-0.50;99.90;;;;;;5208226;28;20045;-70
2022/01/23 07:37:31;;;;;;;15.77;8.00;;;-0.60;99.90;;;;;;5208403;28;20096;-71
2022/01/23 07:40:02;;;;;;;16.63;8.45;;;-0.30;99.90;;;;;;5208236;28;20021;-71
2022/01/23 07:42:34;;;;;;;16.92;7.72;;;-0.50;99.90;;;;;;5208244;28;20026;-71
2022/01/23 07:45:06;;;;;;;17.30;9.00;;;-0.20;99.90;;;;;;5208089;28;20041;-71
2022/01/23 07:47:37;;;;;;;18.05;8.55;;;-0.20;99.90;;;;;;5208193;28;20018;-71
2022/01/23 07:50:09;;;;;;;18.27;9.73;;;-0.30;99.90;;;;;;5208124;28;20021;-71
2022/01/23 07:52:40;;;;;;;19.08;8.50;;;0.20;99.90;;;;;;5208013;28;20022;-71
2022/01/23 07:55:16;;;;;;;17.67;7.90;;;0.40;99.90;;;;;;5207938;28;20135;-72
2022/01/23 07:57:47;;;;;;;13.82;7.93;;;0.60;99.90;;;;;;5208033;28;20075;-72
2022/01/23 08:00:19;;;;;;;13.05;6.50;;;1.30;99.90;;;;;;5207843;28;20068;-72
2022/01/23 08:02:50;;;;;;;16.95;7.22;;;0.80;99.90;;;;;;5207570;28;20053;-72
2022/01/23 08:05:21;;;;;;;12.75;6.28;;;1.40;99.90;;;;;;5207674;28;20037;-73
2022/01/23 08:07:52;;;;;;;16.38;7.28;;;1.50;99.90;;;;;;5207767;28;20022;-72
2022/01/23 08:10:23;;;;;;;17.08;6.18;;;1.20;99.90;;;;;;5207614;28;20381;-73
2022/01/23 08:12:53;;;;;;;17.77;7.45;;;1.90;99.90;;;;;;5207552;28;20155;-73
2022/01/23 08:15:24;;;;;;;13.32;6.68;;;1.80;99.90;;;;;;5207536;28;20013;-73
2022/01/23 08:18:00;;;;;;;13.43;6.55;;;1.90;99.90;;;;;;5207657;28;20030;-73
2022/01/23 08:20:33;;;;;;;11.25;6.03;;;1.80;99.90;;;;;;5207492;28;20014;-72
2022/01/23 08:23:04;;;;;;;11.55;6.10;;;1.90;99.90;;;;;;5207352;28;20032;-73
2022/01/23 08:25:35;;;;;;;12.07;5.93;;;1.60;99.90;;;;;;5207270;28;20033;-72
2022/01/23 08:28:09;;;;;;;10.48;6.10;;;2.10;99.90;;;;;;5207754;28;20028;-71
2022/01/23 08:30:40;;;;;;;11.52;5.22;;;2.60;99.90;;;;;;5207855;28;20110;-71
2022/01/23 08:33:11;;;;;;;10.82;5.07;;;2.20;99.90;;;;;;5220622;28;20562;-73
2022/01/23 08:35:45;;;;;;;8.80;4.30;;;1.90;99.90;;;;;;5227854;28;20115;-71
2022/01/23 08:38:17;;;;;;;8.18;4.53;;;1.80;99.90;;;;;;5208433;28;20488;-72
2022/01/23 08:41:49;;;;;;;8.18;4.63;;;1.70;99.90;;;;;;5208492;28;20041;-72
2022/01/23 08:43:39;;;;;;;8.88;5.22;;;2.30;99.90;;;;;;5223389;28;20037;-72
2022/01/23 08:46:10;;;;;;;12.55;4.68;;;2.60;99.90;;;;;;5227568;28;20028;-73
2022/01/23 08:48:41;;;;;;;8.40;4.70;;;2.10;99.90;;;;;;5207896;28;20376;-73
2022/01/23 08:51:12;;;;;;;8.20;4.68;;;2.10;99.90;;;;;;5206966;28;20110;-73
2022/01/23 08:53:44;;;;;;;9.25;5.10;;;1.90;99.90;;;;;;5206833;28;20091;-72
2022/01/23 08:56:14;;;;;;;10.73;4.90;;;2.90;99.90;;;;;;5206538;28;20017;-72
2022/01/23 08:58:45;;;;;;;9.77;4.53;;;2.20;99.90;;;;;;5206926;28;20469;-72
2022/01/23 09:01:16;;;;;;;9.23;5.20;;;1.70;99.90;;;;;;5206749;28;20017;-72
2022/01/23 09:03:47;;;;;;;8.35;5.13;;;2.80;99.90;;;;;;5206558;28;20079;-72
2022/01/23 09:06:19;;;;;;;10.35;5.20;;;2.60;99.90;;;;;;5206690;28;20057;-72
2022/01/23 09:08:52;;;;;;;9.05;5.03;;;2.70;99.90;;;;;;5206783;28;20025;-72
2022/01/23 09:11:37;;;;;;;9.30;5.45;;;2.40;99.90;;;;;;5206920;28;20060;-72
2022/01/23 09:14:10;;;;;;;11.05;5.47;;;3.00;99.90;;;;;;5207019;28;20030;-73
2022/01/23 09:16:43;;;;;;;9.57;4.72;;;2.60;99.90;;;;;;5206751;28;20063;-73
2022/01/23 09:19:14;;;;;;;10.25;4.65;;;3.40;99.90;;;;;;5206334;28;20037;-73
2022/01/23 09:21:46;;;;;;;9.18;5.10;;;3.00;99.90;;;;;;5206469;28;20026;-72
2022/01/23 09:24:18;;;;;;;9.25;4.70;;;2.60;99.90;;;;;;5206494;28;20040;-72
2022/01/23 09:26:54;;;;;;;9.93;4.50;;;3.30;99.90;;;;;;5206711;28;20026;-72
2022/01/23 09:29:32;;;;;;;7.10;4.80;;;3.00;99.90;;;;;;5206617;28;20440;-73
2022/01/23 09:32:12;;;;;;;8.75;4.95;;;3.10;99.90;;;;;;5206450;28;20108;-73
2022/01/23 09:34:44;;;;;;;9.95;4.07;;;3.10;99.90;;;;;;5206610;28;20033;-73
2022/01/23 09:37:19;;;;;;;11.30;4.40;;;2.70;99.90;;;;;;5206747;28;20037;-74
2022/01/23 09:39:50;;;;;;;7.60;4.43;;;3.70;99.90;;;;;;5206366;28;20021;-74
2022/01/23 09:42:26;;;;;;;9.15;5.18;;;3.50;99.90;;;;;;5206352;28;20108;-74
2022/01/23 09:45:00;;;;;;;8.18;4.53;;;3.10;99.90;;;;;;5206370;28;20041;-74
2022/01/23 09:47:32;;;;;;;8.00;5.10;;;3.80;99.90;;;;;;5206290;28;20026;-73
2022/01/23 09:50:05;;;;;;;10.73;5.15;;;3.40;99.90;;;;;;5206076;28;20420;-74
2022/01/23 09:52:37;;;;;;;7.38;3.72;;;4.10;99.90;;;;;;5206218;28;20420;-74
2022/01/23 09:55:12;;;;;;;8.32;4.45;;;2.10;99.90;;;;;;5206232;28;20459;-73
2022/01/23 09:57:48;;;;;;;9.98;5.03;;;2.00;99.90;;;;;;5208713;28;20018;-73
2022/01/23 10:00:26;;;;;;;9.82;4.88;;;3.30;99.90;;;;;;5210333;28;20487;-74
2022/01/23 10:02:57;;;;;;;9.70;5.07;;;3.20;99.90;;;;;;5210001;28;20065;-74
2022/01/23 10:05:29;;;;;;;8.68;4.25;;;2.80;99.90;;;;;;5210073;28;20070;-73
2022/01/23 10:08:01;;;;;;;7.88;4.03;;;2.90;99.90;;;;;;5210101;28;20537;-73
2022/01/23 10:10:36;;;;;;;8.90;4.53;;;3.60;99.90;;;;;;5210032;28;20048;-74
2022/01/23 10:13:07;;;;;;;7.43;3.67;;;3.20;99.90;;;;;;5209960;28;20041;-74
2022/01/23 10:15:38;;;;;;;7.25;4.13;;;2.40;99.90;;;;;;5209968;28;20025;-74
2022/01/23 10:18:09;;;;;;;5.55;3.30;;;3.60;99.90;;;;;;5209998;28;20033;-74
2022/01/23 10:20:39;;;;;;;8.23;4.63;;;3.40;99.90;;;;;;5209735;28;20033;-73
2022/01/23 10:23:10;;;;;;;9.77;3.72;;;4.20;99.90;;;;;;5209768;28;20028;-73
2022/01/23 10:25:43;;;;;;;10.18;4.53;;;4.20;99.90;;;;;;5209748;28;20040;-73
2022/01/23 10:28:18;;;;;;;7.40;4.13;;;4.70;99.90;;;;;;5209775;28;20056;-73
2022/01/23 10:30:53;;;;;;;5.28;2.78;;;3.70;99.90;;;;;;5209744;28;20022;-73
2022/01/23 10:33:27;;;;;;;6.43;2.63;;;3.40;99.90;;;;;;5209514;28;20484;-74
2022/01/23 10:36:10;;;;;;;6.68;3.38;;;3.10;99.90;;;;;;5209590;28;20069;-73
2022/01/23 10:38:44;;;;;;;5.15;2.83;;;3.90;99.90;;;;;;5209596;28;20426;-73
2022/01/23 10:49:57;;;;;;;9.10;2.20;;;4.10;99.90;;;;;;5209320;28;20032;-74
2022/01/23 10:52:28;;;;;;;2.55;1.65;;;3.60;99.90;;;;;;5209285;28;20491;-74
2022/01/23 10:55:00;;;;;;;3.53;1.95;;;4.00;95.80;;;;;;5209112;28;20018;-74
2022/01/23 10:57:41;;;;;;;6.50;1.92;;;3.80;95.10;;;;;;5209168;28;20473;-73
2022/01/23 11:00:25;;;;;;;6.72;2.10;;;4.00;86.80;;;;;;5209099;28;20453;-74
2022/01/23 11:02:59;;;;;;;5.65;2.25;;;4.30;87.00;;;;;;5208708;28;20050;-73
2022/01/23 11:05:35;;;;;;;5.47;2.45;;;4.10;98.60;;;;;;5208980;28;20182;-73
2022/01/23 11:08:22;;;;;;;4.15;1.90;;;4.30;99.90;;;;;;5208350;28;20025;-73
2022/01/23 11:11:11;;;;;;;6.75;3.33;;;2.90;99.90;;;;;;5208986;28;20056;-74
2022/01/23 11:19:35;;;;;;;4.40;2.10;;;3.60;99.90;;;;;;5209076;28;20253;-74
2022/01/23 11:22:14;;;;;;;6.65;2.95;;;4.10;99.90;;;;;;5208786;28;20080;-74
2022/01/23 11:24:47;;;;;;;2.50;1.55;;;3.90;99.60;;;;;;5208513;28;20040;-74
2022/01/23 11:27:22;;;;;;;4.65;2.20;;;3.70;99.90;;;;;;5208571;28;20018;-74
2022/01/23 11:29:59;;;;;;;3.78;2.22;;;4.40;94.20;;;;;;5208585;28;20108;-73
2022/01/23 11:32:37;;;;;;;5.00;2.58;;;3.90;89.60;;;;;;5208403;28;20018;-74
2022/01/23 11:35:18;;;;;;;4.45;2.42;;;4.00;94.00;;;;;;5208383;28;20099;-74
2022/01/23 11:37:51;;;;;;;4.43;2.33;;;4.00;92.50;;;;;;5208291;28;20036;-73
2022/01/23 11:54:43;;;;;;;9.63;3.55;;;4.30;91.50;;;;;;5192573;28;20116;-73
2022/01/23 11:57:38;;;;;;;7.30;2.72;;;3.80;90.40;;;;;;5208133;28;20049;-73
2022/01/23 12:00:23;;;;;;;5.50;2.20;;;2.80;99.70;;;;;;5207856;28;20485;-74
2022/01/23 12:03:21;;;;;;;4.25;2.10;;;2.60;99.90;;;;;;5207467;28;20056;-73
2022/01/23 12:06:11;;;;;;;7.18;2.67;;;3.10;99.90;;;;;;5204388;28;20057;-74
2022/01/23 12:08:42;;;;;;;4.82;2.72;;;3.70;99.90;;;;;;5190118;28;20041;-73
2022/01/23 12:17:00;;;;;;;6.40;3.20;;;3.80;99.90;;;;;;5207717;28;20373;-73
2022/01/23 12:19:39;;;;;;;8.02;3.08;;;3.00;99.90;;;;;;5207361;28;20068;-73
2022/01/23 12:22:27;;;;;;;9.65;5.53;;;2.50;99.90;;;;;;5206778;28;20105;-73
2022/01/23 12:25:06;;;;;;;10.65;4.43;;;2.40;99.90;;;;;;5207373;28;20431;-73
2022/01/23 12:27:37;;;;;;;6.07;3.10;;;2.90;99.90;;;;;;5207449;28;20508;-73
2022/01/23 12:30:11;;;;;;;4.97;2.70;;;3.10;95.90;;;;;;5207299;28;20069;-73
2022/01/23 12:32:42;;;;;;;5.75;2.90;;;2.60;98.00;;;;;;5207111;28;20022;-73
2022/01/23 12:35:14;;;;;;;7.82;3.40;;;2.20;99.90;;;;;;5207346;28;20033;-73
2022/01/23 12:37:59;;;;;;;8.15;3.25;;;2.50;99.90;;;;;;5207283;28;20036;-73
2022/01/23 12:40:35;;;;;;;6.32;3.40;;;2.10;99.90;;;;;;5207076;28;20033;-74
2022/01/23 12:43:07;;;;;;;5.57;2.70;;;2.30;99.90;;;;;;5207114;28;20033;-73
2022/01/23 12:45:59;;;;;;;7.20;3.13;;;2.20;99.90;;;;;;5207053;28;20365;-73
2022/01/23 12:48:36;;;;;;;8.95;3.90;;;2.10;99.90;;;;;;5207024;28;20120;-73
2022/01/23 12:51:12;;;;;;;7.78;3.15;;;2.10;99.90;;;;;;5207037;28;20412;-73
2022/01/23 12:53:45;;;;;;;7.55;3.30;;;2.00;99.90;;;;;;5206975;28;20365;-73
2022/01/23 12:56:22;;;;;;;6.88;3.65;;;2.30;99.90;;;;;;5207015;28;20104;-73
2022/01/23 12:58:59;;;;;;;7.43;3.70;;;2.30;99.90;;;;;;5206944;28;20032;-73
2022/01/23 13:01:30;;;;;;;7.40;4.90;;;2.70;95.10;;;;;;5206647;28;20037;-73
2022/01/23 13:04:04;;;;;;;7.30;3.80;;;2.60;97.90;;;;;;5206812;28;20485;-74
2022/01/23 13:06:51;;;;;;;6.70;3.90;;;3.40;89.80;;;;;;5206821;28;20029;-73
2022/01/23 13:09:30;;;;;;;6.15;3.38;;;3.40;86.90;;;;;;5206828;28;20021;-73
2022/01/23 13:12:31;;;;;;;8.13;4.35;;;2.90;83.10;;;;;;5206713;28;20030;-73
2022/01/23 13:27:21;;;;;;;6.68;4.25;;;2.10;95.20;;;;;;5206693;28;20061;-73
2022/01/23 13:32:04;;;;;;;7.63;4.68;;;1.90;99.90;;;;;;5207699;28;20481;-73
2022/01/23 13:34:39;;;;;;;8.98;3.50;;;1.80;99.90;;;;;;5210940;28;20439;-73
2022/01/23 13:37:16;;;;;;;8.23;3.40;;;1.60;99.90;;;;;;5211011;28;20022;-73
2022/01/23 13:39:58;;;;;;;8.95;4.18;;;1.90;99.90;;;;;;5210655;28;20546;-73
2022/01/23 13:47:51;;;;;;;7.30;3.80;;;2.30;99.90;;;;;;5210630;28;20091;-73
2022/01/23 13:59:51;;;;;;;10.35;4.50;;;1.90;99.90;;;;;;5210535;28;20112;-73
2022/01/23 14:02:26;;;;;;;8.63;4.32;;;1.60;99.90;;;;;;5210130;28;20045;-73
2022/01/23 14:05:12;;;;;;;9.60;4.22;;;1.60;97.10;;;;;;5210362;28;20454;-73
2022/01/23 14:07:55;;;;;;;6.95;3.97;;;2.00;91.50;;;;;;5210238;28;20088;-72
2022/01/23 14:10:38;;;;;;;8.40;4.57;;;1.90;94.90;;;;;;5210182;28;20117;-72
2022/01/23 14:13:19;;;;;;;9.20;4.75;;;2.10;89.40;;;;;;5210112;28;20060;-73
2022/01/23 14:15:53;;;;;;;8.77;4.10;;;1.90;95.60;;;;;;5210106;28;20021;-72
2022/01/23 14:18:27;;;;;;;11.32;5.95;;;2.30;93.10;;;;;;5209998;28;20032;-73
2022/01/23 14:21:09;;;;;;;6.85;3.78;;;2.00;92.50;;;;;;5209829;28;20045;-73
2022/01/23 14:23:40;;;;;;;7.88;3.60;;;2.10;94.00;;;;;;5209915;28;20022;-73
2022/01/23 14:26:15;;;;;;;7.53;3.92;;;2.10;94.20;;;;;;5209801;28;20380;-73
2022/01/23 14:28:50;;;;;;;7.07;3.00;;;2.10;98.80;;;;;;5209847;28;20084;-73
2022/01/23 14:31:25;;;;;;;7.22;3.72;;;1.70;99.90;;;;;;5209889;28;20029;-73
2022/01/23 14:33:59;;;;;;;12.05;5.88;;;1.70;99.90;;;;;;5209747;28;20110;-73
2022/01/23 14:36:33;;;;;;;13.65;5.03;;;2.00;99.90;;;;;;5209635;28;20029;-73
2022/01/23 14:39:06;;;;;;;13.90;4.90;;;2.00;99.90;;;;;;5209604;28;20062;-73
2022/01/23 14:41:39;;;;;;;12.85;6.00;;;2.20;99.90;;;;;;5209432;28;20040;-73
2022/01/23 14:44:27;;;;;;;11.73;5.50;;;2.30;99.90;;;;;;5208342;28;20047;-73
2022/01/23 14:46:58;;;;;;;9.82;5.60;;;1.80;99.90;;;;;;5209358;28;20060;-73
2022/01/23 14:49:31;;;;;;;11.23;5.93;;;2.00;99.90;;;;;;5209480;28;20101;-73
2022/01/23 14:52:03;;;;;;;13.10;6.70;;;2.00;99.90;;;;;;5209402;28;20373;-73
2022/01/23 14:54:34;;;;;;;8.38;5.13;;;2.10;99.90;;;;;;5209213;28;20091;-73
2022/01/23 14:57:08;;;;;;;7.07;3.50;;;2.00;99.90;;;;;;5191604;28;20069;-73
2022/01/23 14:59:39;;;;;;;9.38;4.75;;;1.90;99.90;;;;;;5209259;28;20354;-73
2022/01/23 15:02:10;;;;;;;12.00;5.45;;;1.70;99.90;;;;;;5208682;28;20069;-73
2022/01/23 15:04:46;;;;;;;10.13;5.53;;;1.60;99.90;;;;;;5209034;28;20034;-73
2022/01/23 15:07:18;;;;;;;9.27;4.72;;;1.70;99.40;;;;;;5191320;28;20551;-73
2022/01/23 15:09:50;;;;;;;11.85;5.05;;;1.60;93.70;;;;;;5208952;28;20022;-73
2022/01/23 15:12:21;;;;;;;9.07;4.45;;;1.60;92.20;;;;;;5191110;28;20030;-73
2022/01/23 15:14:52;;;;;;;8.95;4.18;;;1.50;94.00;;;;;;5209011;28;20032;-73
2022/01/23 15:17:25;;;;;;;9.63;4.40;;;1.70;91.90;;;;;;5208840;28;20025;-73
2022/01/23 15:19:57;;;;;;;15.88;7.88;;;1.50;99.30;;;;;;5208824;28;20029;-73
2022/01/23 15:22:27;;;;;;;13.80;6.05;;;1.40;99.90;;;;;;5208615;28;20022;-73
2022/01/23 15:25:00;;;;;;;15.85;6.85;;;1.40;99.90;;;;;;5208636;28;20036;-73
2022/01/23 15:27:30;;;;;;;11.15;5.20;;;1.30;99.90;;;;;;5208617;28;20022;-73
2022/01/23 15:30:02;;;;;;;7.75;4.50;;;1.20;99.90;;;;;;5208648;28;20105;-72
2022/01/23 15:32:35;;;;;;;11.63;4.10;;;1.10;99.90;;;;;;5208392;28;20033;-73
2022/01/23 15:35:06;;;;;;;10.43;3.85;;;0.90;99.90;;;;;;5208493;28;20124;-72
2022/01/23 15:37:37;;;;;;;9.48;4.25;;;1.00;99.90;;;;;;5208338;28;20025;-73
2022/01/23 15:40:13;;;;;;;10.75;5.72;;;1.00;99.90;;;;;;5208407;28;20550;-73
2022/01/23 15:42:45;;;;;;;11.27;5.40;;;1.00;99.90;;;;;;5208314;28;20029;-73
2022/01/23 15:45:17;;;;;;;11.18;5.50;;;1.00;99.90;;;;;;5208075;28;20038;-73
2022/01/23 15:47:48;;;;;;;7.13;3.97;;;0.80;99.90;;;;;;5208241;28;20520;-73
2022/01/23 15:50:19;;;;;;;9.13;5.97;;;0.70;99.90;;;;;;5208238;28;20022;-73
2022/01/23 15:52:50;;;;;;;5.05;3.00;;;0.70;99.90;;;;;;5208047;28;20025;-73
2022/01/23 15:55:24;;;;;;;6.55;4.15;;;0.60;99.90;;;;;;5207837;28;20037;-73
2022/01/23 15:57:56;;;;;;;5.38;3.13;;;0.40;99.90;;;;;;5208028;28;20079;-73
2022/01/23 16:00:27;;;;;;;7.43;3.45;;;0.50;99.90;;;;;;5207835;28;20029;-73
2022/01/23 16:02:58;;;;;;;6.47;3.47;;;0.60;99.90;;;;;;5207673;28;20038;-73
2022/01/23 16:05:29;;;;;;;12.43;3.80;;;0.30;99.90;;;;;;5207779;28;20393;-73
2022/01/23 16:08:00;;;;;;;21.75;5.85;;;0.60;99.90;;;;;;5207954;28;20473;-73
2022/01/23 16:10:31;;;;;;;9.68;4.75;;;0.50;99.90;;;;;;5207835;28;20022;-73
2022/01/23 16:13:02;;;;;;;9.48;4.38;;;0.60;99.90;;;;;;5207701;28;20079;-73
2022/01/23 16:15:33;;;;;;;9.45;4.88;;;0.40;99.90;;;;;;5189951;28;20044;-73
2022/01/23 16:18:04;;;;;;;11.07;6.75;;;0.30;99.90;;;;;;5207791;28;20488;-73
2022/01/23 16:20:36;;;;;;;8.85;5.25;;;0.10;99.90;;;;;;5207548;28;20025;-73
2022/01/23 16:23:07;;;;;;;10.15;5.28;;;0.10;99.90;;;;;;5207368;28;20032;-73
2022/01/23 16:25:38;;;;;;;11.32;6.30;;;0.40;99.90;;;;;;5189731;28;20049;-73
2022/01/23 16:28:08;;;;;;;10.45;6.10;;;0.40;99.90;;;;;;5207516;28;20022;-73
2022/01/23 16:30:48;;;;;;;12.45;6.20;;;0.50;99.90;;;;;;5207419;28;20480;-73
2022/01/23 16:33:20;;;;;;;7.03;4.55;;;0.40;99.90;;;;;;5207471;28;20032;-73
2022/01/23 16:35:52;;;;;;;18.08;5.80;;;0.40;99.90;;;;;;5207367;28;20104;-73